Time;durP1;ratioP1;P1;durP2;ratioP2;P2;SDS_P1;SDS_P2;PMS_P1;PMS_P2;Temp;Humidity;BMP_temperature;BMP_pressure;BME280_temperature;BME280_humidity;BME280_pressure;Samples;Min_cycle;Max_cycle;Signal;HPM_P1;HPM_P2
2021/11/08 00:01:10;;;;;;;18.42;3.85;;;8.20;99.90;;;;;;5094459;28;20057;-67
2021/11/08 00:03:40;;;;;;;15.30;3.53;;;8.10;99.90;;;;;;5075366;28;20463;-66
2021/11/08 00:06:05;;;;;;;11.60;3.85;;;8.10;99.90;;;;;;5075714;28;20024;-68
2021/11/08 00:08:33;;;;;;;13.90;3.67;;;8.10;99.90;;;;;;5094019;28;20072;-67
2021/11/08 00:10:59;;;;;;;15.93;3.50;;;8.20;99.90;;;;;;5094161;28;20020;-67
2021/11/08 00:13:25;;;;;;;12.25;3.70;;;8.20;99.90;;;;;;5075782;28;20445;-67
2021/11/08 00:18:47;;;;;;;15.40;3.50;;;8.20;99.90;;;;;;5093888;28;20061;-67
2021/11/08 00:21:13;;;;;;;12.10;4.07;;;8.20;99.90;;;;;;5075780;28;20284;-66
2021/11/08 00:23:39;;;;;;;9.88;3.47;;;8.00;99.90;;;;;;5074848;28;20020;-67
2021/11/08 00:26:05;;;;;;;16.23;4.28;;;7.70;99.90;;;;;;5075859;28;20054;-67
2021/11/08 00:28:31;;;;;;;15.27;4.20;;;7.70;99.90;;;;;;5093338;28;20197;-66
2021/11/08 00:30:57;;;;;;;15.20;3.60;;;7.60;99.90;;;;;;5093104;28;20103;-67
2021/11/08 00:33:23;;;;;;;14.35;3.65;;;7.60;99.90;;;;;;5075316;28;20161;-67
2021/11/08 00:35:55;;;;;;;10.02;3.67;;;7.40;99.90;;;;;;5092928;28;20148;-67
2021/11/08 00:38:20;;;;;;;12.07;4.80;;;7.40;99.90;;;;;;5093559;28;20031;-66
2021/11/08 00:40:47;;;;;;;14.77;3.70;;;7.20;99.90;;;;;;5092756;28;20028;-67
2021/11/08 00:43:14;;;;;;;9.82;3.95;;;7.30;99.90;;;;;;5074659;28;20020;-67
2021/11/08 00:45:40;;;;;;;10.02;4.28;;;7.30;99.90;;;;;;5074192;28;20028;-67
2021/11/08 00:48:06;;;;;;;10.15;3.72;;;7.30;99.90;;;;;;5093311;28;20085;-67
2021/11/08 00:50:32;;;;;;;20.65;5.28;;;7.30;99.90;;;;;;5092927;28;20028;-67
2021/11/08 00:52:59;;;;;;;12.43;4.47;;;7.40;99.90;;;;;;5092408;28;20099;-67
2021/11/08 00:55:26;;;;;;;9.95;4.00;;;7.40;99.90;;;;;;5093343;28;20113;-67
2021/11/08 00:57:55;;;;;;;9.30;4.32;;;7.40;99.90;;;;;;5073913;28;20032;-67
2021/11/08 01:00:25;;;;;;;17.08;4.90;;;7.30;99.90;;;;;;5074474;28;20077;-66
2021/11/08 01:02:51;;;;;;;10.57;4.25;;;7.30;99.90;;;;;;5092090;28;20062;-67
2021/11/08 01:05:17;;;;;;;17.65;5.25;;;7.20;99.90;;;;;;5074569;28;20049;-67
2021/11/08 01:07:43;;;;;;;13.10;4.00;;;7.30;99.90;;;;;;5073880;28;20024;-66
2021/11/08 01:10:11;;;;;;;10.25;4.15;;;7.40;99.90;;;;;;5092334;28;20043;-66
2021/11/08 01:12:37;;;;;;;13.93;3.85;;;7.40;99.90;;;;;;5091885;28;20458;-77
2021/11/08 01:15:05;;;;;;;14.82;3.90;;;7.40;99.90;;;;;;5092188;28;20047;-66
2021/11/08 01:17:33;;;;;;;12.27;4.38;;;7.50;99.90;;;;;;5073901;28;20460;-67
2021/11/08 01:19:59;;;;;;;8.77;3.13;;;7.50;99.90;;;;;;5073416;28;20034;-67
2021/11/08 01:22:24;;;;;;;12.98;4.78;;;7.50;99.90;;;;;;5092834;28;20364;-67
2021/11/08 01:24:53;;;;;;;12.35;4.80;;;7.40;99.90;;;;;;5091733;28;20020;-66
2021/11/08 01:27:22;;;;;;;11.30;3.60;;;7.40;99.90;;;;;;5091790;28;20133;-66
2021/11/08 01:29:48;;;;;;;14.55;4.03;;;7.40;99.90;;;;;;5091607;28;20437;-66
2021/11/08 01:32:14;;;;;;;10.93;3.35;;;7.40;99.90;;;;;;5092428;28;20107;-67
2021/11/08 01:34:40;;;;;;;8.50;3.63;;;7.40;99.90;;;;;;5091573;28;20020;-68
2021/11/08 01:37:06;;;;;;;14.07;4.18;;;7.40;99.90;;;;;;5074027;28;20341;-66
2021/11/08 01:39:33;;;;;;;11.52;4.13;;;7.40;99.90;;;;;;5092181;28;20016;-67
2021/11/08 01:42:07;;;;;;;18.35;3.95;;;7.40;99.90;;;;;;5073556;28;20311;-67
2021/11/08 01:44:32;;;;;;;12.52;3.60;;;7.40;99.90;;;;;;5092145;28;20020;-68
2021/11/08 01:47:01;;;;;;;10.07;3.33;;;7.40;99.90;;;;;;5072994;28;20347;-66
2021/11/08 01:49:29;;;;;;;20.40;3.85;;;7.40;99.90;;;;;;5091871;28;20070;-67
2021/11/08 01:51:56;;;;;;;17.73;4.93;;;7.40;99.90;;;;;;5091266;28;20102;-67
2021/11/08 01:54:23;;;;;;;9.35;4.28;;;7.50;99.90;;;;;;5091684;28;20475;-67
2021/11/08 01:56:51;;;;;;;11.55;3.72;;;7.50;99.90;;;;;;5073159;28;20381;-66
2021/11/08 01:59:16;;;;;;;12.43;4.35;;;7.60;99.90;;;;;;5073607;28;20024;-67
2021/11/08 02:01:42;;;;;;;20.05;4.95;;;7.60;99.90;;;;;;5091045;28;20024;-67
2021/11/08 02:04:08;;;;;;;9.13;3.30;;;7.60;99.90;;;;;;5091767;28;20437;-67
2021/11/08 02:06:34;;;;;;;15.05;4.10;;;7.70;99.90;;;;;;5092050;28;20031;-66
2021/11/08 02:09:00;;;;;;;12.05;3.80;;;7.60;99.90;;;;;;5072942;28;20159;-66
2021/11/08 02:11:26;;;;;;;12.23;3.13;;;7.70;99.90;;;;;;5091442;28;20443;-67
2021/11/08 02:13:53;;;;;;;14.05;3.20;;;7.80;99.90;;;;;;5090793;28;20154;-67
2021/11/08 02:16:20;;;;;;;23.63;5.50;;;7.80;99.90;;;;;;5073176;28;20052;-66
2021/11/08 02:18:46;;;;;;;14.60;3.67;;;7.80;99.90;;;;;;5072909;28;20115;-67
2021/11/08 02:21:12;;;;;;;12.55;3.72;;;7.80;99.90;;;;;;5073371;28;20028;-68
2021/11/08 02:23:40;;;;;;;12.25;3.75;;;7.90;99.90;;;;;;5091521;28;20156;-67
2021/11/08 02:26:12;;;;;;;9.55;4.50;;;7.90;99.90;;;;;;5091169;28;20043;-67
2021/11/08 02:28:39;;;;;;;11.65;3.83;;;8.00;99.90;;;;;;5073530;28;20020;-67
2021/11/08 02:31:05;;;;;;;23.45;4.75;;;8.00;99.90;;;;;;5090796;28;20020;-67
2021/11/08 02:33:31;;;;;;;18.13;3.72;;;8.00;99.90;;;;;;5073215;28;20089;-67
2021/11/08 02:35:58;;;;;;;28.70;5.43;;;8.00;99.90;;;;;;5072703;28;20024;-67
2021/11/08 02:38:26;;;;;;;10.75;3.53;;;8.10;99.90;;;;;;5092781;28;20028;-67
2021/11/08 02:40:54;;;;;;;9.48;3.45;;;8.10;99.90;;;;;;5094613;28;20449;-67
2021/11/08 02:43:21;;;;;;;12.20;3.20;;;8.00;99.90;;;;;;5095412;28;20024;-67
2021/11/08 02:46:08;;;;;;;9.32;2.90;;;8.10;99.90;;;;;;5094571;28;20457;-66
2021/11/08 02:48:35;;;;;;;12.35;2.97;;;8.00;99.90;;;;;;5111704;28;20030;-67
2021/11/08 02:51:09;;;;;;;19.23;3.35;;;8.10;99.90;;;;;;5096023;28;20411;-67
2021/11/08 02:53:38;;;;;;;15.10;4.03;;;8.10;99.90;;;;;;5077630;28;20056;-66
2021/11/08 02:56:06;;;;;;;18.13;4.28;;;8.10;99.90;;;;;;5095034;28;20111;-70
2021/11/08 02:58:32;;;;;;;11.23;3.53;;;8.10;99.90;;;;;;5095028;28;20024;-67
2021/11/08 03:00:58;;;;;;;13.90;3.28;;;8.00;99.90;;;;;;5094481;28;20132;-67
2021/11/08 03:03:32;;;;;;;14.40;4.40;;;8.10;99.90;;;;;;5095098;28;20195;-67
2021/11/08 03:06:03;;;;;;;11.38;3.25;;;8.00;99.90;;;;;;5076281;28;20024;-66
2021/11/08 03:08:29;;;;;;;14.10;3.90;;;7.80;99.90;;;;;;5095081;28;20020;-66
2021/11/08 03:10:57;;;;;;;20.27;4.63;;;7.80;99.90;;;;;;5075903;28;20503;-67
2021/11/08 03:13:24;;;;;;;16.00;4.85;;;7.80;99.90;;;;;;5094971;28;20016;-67
2021/11/08 03:18:31;;;;;;;10.02;3.53;;;7.80;99.90;;;;;;5094831;28;20020;-67
2021/11/08 03:20:58;;;;;;;9.82;4.28;;;7.70;99.90;;;;;;5094733;28;20054;-66
2021/11/08 03:23:25;;;;;;;15.18;4.78;;;7.70;99.90;;;;;;5076439;28;20157;-67
2021/11/08 03:28:43;;;;;;;13.70;4.78;;;7.70;99.90;;;;;;5063257;28;20056;-66
2021/11/08 03:31:10;;;;;;;11.40;3.92;;;7.60;99.90;;;;;;5093904;28;20381;-67
2021/11/08 03:33:37;;;;;;;13.60;3.42;;;7.70;99.90;;;;;;5094944;28;20020;-67
2021/11/08 03:36:03;;;;;;;14.40;4.15;;;7.60;99.90;;;;;;5075810;28;20047;-67
2021/11/08 03:38:35;;;;;;;11.90;3.47;;;7.50;99.90;;;;;;5094311;28;20027;-66
2021/11/08 03:41:01;;;;;;;15.07;3.65;;;7.60;99.90;;;;;;5075493;28;20016;-67
2021/11/08 03:43:27;;;;;;;16.02;4.80;;;7.60;99.90;;;;;;5075953;28;20024;-66
2021/11/08 03:45:53;;;;;;;17.40;3.63;;;7.60;99.90;;;;;;5093602;28;20031;-67
2021/11/08 03:48:20;;;;;;;22.67;4.60;;;7.60;99.90;;;;;;5075904;28;20334;-67
2021/11/08 03:50:47;;;;;;;12.75;3.65;;;7.50;99.90;;;;;;5093635;28;20352;-67
2021/11/08 03:53:13;;;;;;;12.73;3.97;;;7.60;99.90;;;;;;5075663;28;20020;-67
2021/11/08 03:55:39;;;;;;;14.48;4.32;;;7.60;99.90;;;;;;5093701;28;20345;-67
2021/11/08 03:58:05;;;;;;;11.30;3.72;;;7.60;99.90;;;;;;5075112;28;20024;-67
2021/11/08 04:00:31;;;;;;;16.15;4.88;;;7.40;99.90;;;;;;5075704;28;20017;-67
2021/11/08 04:02:58;;;;;;;13.25;5.03;;;7.30;99.90;;;;;;5093174;28;20125;-66
2021/11/08 04:05:26;;;;;;;13.65;4.18;;;7.30;99.90;;;;;;5075840;28;20020;-67
2021/11/08 04:07:52;;;;;;;13.43;4.63;;;7.10;99.90;;;;;;5092793;28;20038;-67
2021/11/08 04:10:20;;;;;;;17.23;5.82;;;7.10;99.90;;;;;;5093571;28;20036;-66
2021/11/08 04:12:47;;;;;;;14.52;4.18;;;7.10;99.90;;;;;;5093643;28;20110;-66
2021/11/08 04:15:17;;;;;;;12.85;3.60;;;7.10;99.90;;;;;;5093584;28;20022;-67
2021/11/08 04:17:45;;;;;;;14.98;5.80;;;7.20;99.90;;;;;;5074621;28;20052;-66
2021/11/08 04:20:17;;;;;;;17.33;5.00;;;7.20;99.90;;;;;;5092612;28;20024;-66
2021/11/08 04:22:46;;;;;;;14.13;5.22;;;7.20;99.90;;;;;;5075177;28;20449;-67
2021/11/08 04:25:13;;;;;;;17.60;4.15;;;7.20;99.90;;;;;;5074382;28;20020;-67
2021/11/08 04:27:43;;;;;;;13.18;4.47;;;7.20;99.90;;;;;;5074728;28;20028;-67
2021/11/08 04:30:10;;;;;;;15.15;5.10;;;7.30;99.90;;;;;;5092662;28;20032;-67
2021/11/08 04:32:48;;;;;;;17.15;5.50;;;7.30;99.90;;;;;;5075003;28;20027;-67
2021/11/08 04:35:19;;;;;;;19.10;6.22;;;7.40;99.90;;;;;;5074986;28;20030;-67
2021/11/08 04:40:23;;;;;;;10.27;4.13;;;7.40;99.90;;;;;;5093159;28;20028;-67
2021/11/08 04:42:56;;;;;;;12.48;4.43;;;7.50;99.90;;;;;;5093223;28;20016;-66
2021/11/08 04:50:58;;;;;;;26.83;4.30;;;7.60;99.90;;;;;;5092733;28;20024;-66
2021/11/08 04:53:51;;;;;;;11.98;4.28;;;7.50;99.90;;;;;;5092795;28;20016;-67
2021/11/08 05:30:35;;;;;;;11.40;4.88;;;7.10;99.90;;;;;;5092097;28;20073;-67
2021/11/08 05:33:01;;;;;;;15.93;5.40;;;7.00;99.90;;;;;;5091866;28;20070;-66
2021/11/08 05:35:28;;;;;;;19.48;7.13;;;7.00;99.90;;;;;;5092092;28;20019;-66
2021/11/08 05:37:55;;;;;;;18.13;4.97;;;7.10;99.90;;;;;;5090850;28;20096;-67
2021/11/08 05:40:29;;;;;;;23.60;5.40;;;7.10;99.90;;;;;;5079953;28;20019;-68
2021/11/08 05:42:56;;;;;;;20.83;5.85;;;7.10;99.90;;;;;;5111328;28;20023;-68
2021/11/08 05:45:21;;;;;;;20.45;5.38;;;7.10;99.90;;;;;;5093320;28;20453;-67
2021/11/08 05:47:47;;;;;;;14.00;5.05;;;7.00;99.90;;;;;;5076600;28;20043;-67
2021/11/08 05:50:16;;;;;;;13.13;4.78;;;7.10;99.90;;;;;;5110949;28;20356;-68
2021/11/08 05:52:42;;;;;;;14.25;4.82;;;7.00;99.90;;;;;;5112165;28;20024;-67
2021/11/08 05:55:10;;;;;;;18.80;4.65;;;7.10;99.90;;;;;;5111496;28;20047;-69
2021/11/08 06:49:51;;;;;;;16.60;5.88;;;7.50;99.90;;;;;;5110952;28;20131;-68
2021/11/08 06:52:19;;;;;;;15.18;5.00;;;7.50;99.90;;;;;;5110273;28;20115;-68
2021/11/08 06:54:47;;;;;;;24.27;5.15;;;7.60;99.90;;;;;;5111056;28;20019;-69
2021/11/08 06:57:16;;;;;;;17.10;5.25;;;7.50;99.90;;;;;;5091690;28;20038;-69
2021/11/08 06:59:44;;;;;;;16.35;6.07;;;7.40;99.90;;;;;;5110990;28;20019;-68
2021/11/08 07:02:11;;;;;;;14.60;5.28;;;7.50;99.90;;;;;;5091625;28;20115;-69
2021/11/08 07:04:37;;;;;;;21.77;6.15;;;7.20;99.90;;;;;;5110838;28;20039;-69
2021/11/08 07:07:05;;;;;;;21.48;6.65;;;7.20;99.90;;;;;;5091575;28;20456;-69
2021/11/08 07:09:31;;;;;;;17.17;6.03;;;7.20;99.90;;;;;;5110534;28;20080;-68
2021/11/08 07:11:57;;;;;;;18.38;5.57;;;7.20;99.90;;;;;;5111011;28;20110;-69
2021/11/08 07:14:23;;;;;;;22.90;6.22;;;7.20;99.90;;;;;;5092019;28;20046;-68
2021/11/08 07:16:48;;;;;;;17.05;5.78;;;7.30;99.90;;;;;;5091863;28;20043;-68
2021/11/08 07:19:16;;;;;;;15.55;5.13;;;7.30;99.90;;;;;;5108901;28;20043;-68
2021/11/08 07:21:42;;;;;;;20.65;5.60;;;7.30;99.90;;;;;;5110446;28;20020;-68
2021/11/08 07:24:08;;;;;;;20.90;6.20;;;7.40;99.90;;;;;;5109791;28;20032;-69
2021/11/08 07:26:35;;;;;;;27.73;7.60;;;7.40;99.90;;;;;;5096073;28;20024;-69
2021/11/08 07:29:00;;;;;;;15.02;5.85;;;7.40;99.90;;;;;;5113950;28;20027;-69
2021/11/08 07:31:26;;;;;;;23.67;5.68;;;7.40;99.90;;;;;;5114040;28;20027;-69
2021/11/08 07:33:52;;;;;;;19.63;6.60;;;7.40;99.90;;;;;;5113259;28;20031;-68
2021/11/08 07:36:18;;;;;;;18.70;5.63;;;7.40;99.90;;;;;;5113458;28;20038;-68
2021/11/08 07:38:43;;;;;;;16.00;6.35;;;7.40;99.90;;;;;;5095744;28;20100;-69
2021/11/08 07:41:12;;;;;;;14.38;6.00;;;7.40;99.90;;;;;;5113206;28;20023;-69
2021/11/08 07:43:39;;;;;;;21.67;6.43;;;7.60;99.90;;;;;;5113575;28;20106;-68
2021/11/08 07:46:06;;;;;;;21.48;5.88;;;7.60;99.90;;;;;;5094508;28;20349;-70
2021/11/08 07:48:32;;;;;;;18.98;6.15;;;7.60;99.90;;;;;;5095177;28;20047;-68
2021/11/08 07:50:58;;;;;;;18.65;5.88;;;7.60;99.90;;;;;;5113546;28;20024;-68
2021/11/08 07:53:24;;;;;;;19.75;6.18;;;7.70;99.90;;;;;;5094698;28;20114;-69
2021/11/08 07:55:50;;;;;;;14.88;6.70;;;7.60;99.90;;;;;;5095300;28;20027;-68
2021/11/08 07:58:16;;;;;;;19.58;5.47;;;7.60;99.90;;;;;;5113060;28;20023;-69
2021/11/08 08:00:43;;;;;;;18.52;5.70;;;7.60;99.90;;;;;;5113285;28;20309;-69
2021/11/08 08:03:10;;;;;;;12.13;5.38;;;7.70;99.90;;;;;;5112951;28;20394;-68
2021/11/08 08:05:36;;;;;;;21.38;6.43;;;7.70;99.90;;;;;;5113709;28;20024;-69
2021/11/08 08:08:03;;;;;;;16.45;5.57;;;7.70;99.90;;;;;;5094778;28;20109;-72
2021/11/08 08:10:30;;;;;;;14.70;6.22;;;7.60;99.90;;;;;;5095586;28;20518;-69
2021/11/08 08:12:55;;;;;;;19.33;7.40;;;7.60;99.90;;;;;;5113255;28;20368;-70
2021/11/08 08:15:21;;;;;;;17.83;5.60;;;7.60;99.90;;;;;;5094522;28;20629;-70
2021/11/08 08:17:47;;;;;;;23.55;6.60;;;7.70;99.90;;;;;;5094647;28;20447;-67
2021/11/08 08:20:16;;;;;;;13.98;5.43;;;8.50;99.90;;;;;;5093768;28;20038;-66
2021/11/08 08:22:42;;;;;;;23.02;6.20;;;8.80;99.90;;;;;;5113282;28;20020;-69
2021/11/08 08:25:08;;;;;;;17.08;6.18;;;8.70;99.90;;;;;;5094195;28;20023;-69
2021/11/08 08:27:34;;;;;;;23.67;7.05;;;8.60;99.90;;;;;;5112966;28;20088;-69
2021/11/08 08:30:00;;;;;;;17.15;5.28;;;8.50;99.90;;;;;;5110990;28;20032;-70
2021/11/08 08:32:26;;;;;;;17.33;5.78;;;8.50;99.90;;;;;;5093403;28;20058;-69
2021/11/08 08:34:51;;;;;;;16.63;6.07;;;8.50;99.90;;;;;;5112145;28;20020;-69
2021/11/08 08:37:18;;;;;;;23.60;5.68;;;8.60;99.90;;;;;;5088746;28;20039;-69
2021/11/08 08:39:44;;;;;;;11.13;5.20;;;8.70;99.90;;;;;;5076704;28;20027;-69
2021/11/08 08:42:10;;;;;;;18.02;7.07;;;8.60;99.90;;;;;;5106820;28;20592;-69
2021/11/08 08:44:37;;;;;;;17.75;6.47;;;8.60;99.90;;;;;;5106102;28;20031;-69
2021/11/08 08:47:02;;;;;;;14.80;6.53;;;8.60;99.90;;;;;;5085610;28;20031;-69
2021/11/08 08:49:28;;;;;;;16.58;6.05;;;8.70;99.90;;;;;;5110759;28;20046;-69
2021/11/08 08:51:54;;;;;;;23.48;7.15;;;8.80;99.90;;;;;;5090785;28;20028;-68
2021/11/08 08:54:20;;;;;;;18.08;5.82;;;9.20;99.90;;;;;;5073933;28;20081;-69
2021/11/08 08:56:47;;;;;;;28.55;7.85;;;9.30;99.90;;;;;;5082926;28;20545;-68
2021/11/08 08:59:13;;;;;;;26.38;6.80;;;9.30;99.90;;;;;;5103508;28;20016;-69
2021/11/08 09:01:39;;;;;;;25.45;6.50;;;9.20;99.90;;;;;;5106023;28;20076;-70
2021/11/08 09:04:05;;;;;;;18.70;7.25;;;9.30;99.90;;;;;;5109096;28;20020;-76
2021/11/08 09:06:32;;;;;;;21.42;6.65;;;9.30;99.90;;;;;;5090807;28;20019;-69
2021/11/08 09:08:57;;;;;;;21.33;6.35;;;9.30;99.90;;;;;;5103943;28;20051;-69
2021/11/08 09:11:24;;;;;;;20.55;6.30;;;9.50;99.90;;;;;;5079292;28;20487;-69
2021/11/08 09:13:52;;;;;;;18.40;6.38;;;9.70;99.90;;;;;;5079766;28;20376;-70
2021/11/08 09:16:18;;;;;;;17.55;6.80;;;9.90;99.90;;;;;;5092837;28;20048;-73
2021/11/08 09:18:53;;;;;;;15.98;6.35;;;10.00;99.90;;;;;;5111626;28;20414;-68
2021/11/08 09:21:20;;;;;;;16.45;6.70;;;10.00;99.90;;;;;;5104619;28;20116;-69
2021/11/08 09:23:48;;;;;;;23.52;8.75;;;9.90;99.90;;;;;;5093994;28;20030;-69
2021/11/08 09:26:14;;;;;;;22.38;7.65;;;9.90;99.90;;;;;;5078206;28;20031;-69
2021/11/08 09:28:40;;;;;;;17.20;6.95;;;9.70;99.90;;;;;;5090959;28;20418;-69
2021/11/08 09:31:07;;;;;;;19.10;6.95;;;9.70;99.90;;;;;;5093006;28;20072;-68
2021/11/08 09:33:33;;;;;;;19.48;6.65;;;9.60;99.90;;;;;;5093361;28;20069;-69
2021/11/08 09:36:05;;;;;;;19.95;7.65;;;10.10;99.90;;;;;;5111643;28;20467;-68
2021/11/08 09:38:32;;;;;;;19.67;7.07;;;10.20;99.90;;;;;;5093017;28;20125;-67
2021/11/08 09:40:58;;;;;;;15.68;6.65;;;10.10;99.90;;;;;;5111738;28;20019;-68
2021/11/08 09:43:24;;;;;;;22.65;7.93;;;9.90;99.90;;;;;;5111258;28;20027;-67
2021/11/08 09:45:52;;;;;;;17.08;7.15;;;9.90;99.90;;;;;;5111518;28;20345;-67
2021/11/08 09:48:19;;;;;;;16.90;7.18;;;9.70;99.90;;;;;;5092502;28;20110;-69
2021/11/08 09:50:46;;;;;;;19.70;6.97;;;10.00;99.90;;;;;;5111887;28;20020;-67
2021/11/08 09:53:13;;;;;;;21.40;7.45;;;10.30;99.90;;;;;;5101017;28;20480;-67
2021/11/08 09:55:41;;;;;;;16.08;7.05;;;10.40;99.90;;;;;;5090679;28;20058;-68
2021/11/08 09:58:08;;;;;;;20.63;9.43;;;10.60;99.90;;;;;;5091356;28;20457;-68
2021/11/08 10:00:36;;;;;;;15.20;7.50;;;10.60;99.90;;;;;;5107749;28;20067;-67
2021/11/08 10:03:13;;;;;;;14.77;6.50;;;10.20;99.90;;;;;;5093272;28;20110;-67
2021/11/08 10:05:42;;;;;;;15.25;6.47;;;9.80;99.90;;;;;;5093385;28;20034;-67
2021/11/08 10:08:10;;;;;;;17.02;7.28;;;9.90;99.90;;;;;;5111582;28;20027;-67
2021/11/08 10:10:37;;;;;;;19.17;6.55;;;9.90;99.90;;;;;;5094928;28;20036;-68
2021/11/08 10:13:11;;;;;;;20.58;6.70;;;10.10;99.90;;;;;;5093830;28;20015;-68
2021/11/08 10:15:38;;;;;;;18.10;6.32;;;10.20;99.90;;;;;;5092105;28;20015;-70
2021/11/08 10:18:05;;;;;;;16.42;6.68;;;10.30;99.90;;;;;;5111456;28;20020;-70
2021/11/08 10:20:41;;;;;;;13.85;5.75;;;10.10;99.90;;;;;;5092329;28;20031;-68
2021/11/08 10:23:08;;;;;;;18.38;6.18;;;10.20;99.90;;;;;;5091801;28;20023;-68
2021/11/08 10:25:36;;;;;;;18.55;6.45;;;10.50;99.90;;;;;;5110786;28;20028;-67
2021/11/08 10:28:17;;;;;;;18.75;7.15;;;10.70;99.90;;;;;;5110734;28;20023;-69
2021/11/08 10:30:45;;;;;;;22.45;7.80;;;10.60;99.90;;;;;;5092723;28;20016;-67
2021/11/08 10:33:17;;;;;;;20.13;7.40;;;10.90;99.90;;;;;;5109089;28;20060;-76
2021/11/08 10:35:55;;;;;;;19.33;6.45;;;11.00;99.90;;;;;;5093054;28;20023;-68
2021/11/08 10:38:27;;;;;;;26.38;7.38;;;11.10;99.90;;;;;;5110542;28;20023;-68
2021/11/08 10:40:56;;;;;;;21.35;6.15;;;11.10;99.90;;;;;;5111102;28;20050;-68
2021/11/08 10:43:44;;;;;;;17.40;7.70;;;11.10;99.90;;;;;;5093055;28;20165;-69
2021/11/08 10:46:16;;;;;;;21.98;7.70;;;11.10;99.90;;;;;;5090853;28;20025;-68
2021/11/08 10:48:46;;;;;;;30.98;6.82;;;11.20;99.90;;;;;;5073182;28;20024;-67
2021/11/08 10:51:15;;;;;;;17.80;5.28;;;11.10;99.90;;;;;;5090584;28;20143;-70
2021/11/08 10:53:49;;;;;;;18.73;5.55;;;11.10;99.90;;;;;;5090908;28;20055;-69
2021/11/08 10:56:21;;;;;;;15.20;5.13;;;11.10;99.90;;;;;;5072128;28;20025;-69
2021/11/08 10:58:47;;;;;;;;;;;11.10;99.90;;;;;;5081275;28;20043;-68
2021/11/08 11:01:49;;;;;;;16.08;4.88;;;11.30;99.90;;;;;;5093038;28;19903;-72
2021/11/08 11:04:16;;;;;;;16.42;5.70;;;11.40;99.90;;;;;;5055094;28;20035;-69
2021/11/08 11:06:48;;;;;;;15.73;5.97;;;11.30;99.90;;;;;;5096695;28;20024;-68
2021/11/08 11:09:17;;;;;;;;;;;11.30;99.90;;;;;;5096337;28;20072;-70
2021/11/08 11:11:44;;;;;;;19.13;6.57;;;11.50;99.90;;;;;;5096870;28;19915;-78
2021/11/08 11:14:11;;;;;;;22.13;6.32;;;11.50;99.90;;;;;;5115387;28;20130;-68
2021/11/08 11:16:45;;;;;;;13.50;6.22;;;11.40;99.90;;;;;;5113790;28;20406;-69
2021/11/08 11:19:14;;;;;;;18.45;5.55;;;11.30;99.90;;;;;;5115044;28;20081;-68
2021/11/08 11:21:53;;;;;;;16.33;5.93;;;11.30;99.90;;;;;;5113912;28;20051;-69
2021/11/08 11:24:45;;;;;;;15.93;5.15;;;11.40;99.90;;;;;;5080806;28;20045;-68
2021/11/08 11:27:30;;;;;;;24.55;6.35;;;11.70;99.90;;;;;;5094036;28;20031;-69
2021/11/08 11:30:23;;;;;;;24.70;5.68;;;11.70;99.90;;;;;;5075603;28;20020;-69
2021/11/08 11:33:07;;;;;;;16.30;6.00;;;11.60;99.90;;;;;;5075658;28;20110;-69
2021/11/08 11:35:35;;;;;;;21.55;5.82;;;11.60;99.90;;;;;;5093841;28;20064;-68
2021/11/08 11:38:10;;;;;;;17.23;5.60;;;11.40;99.90;;;;;;5075622;28;20036;-68
2021/11/08 11:40:42;;;;;;;18.05;5.57;;;11.40;99.90;;;;;;5075315;28;20385;-70
2021/11/08 11:43:11;;;;;;;15.57;5.35;;;11.40;99.90;;;;;;5106312;28;20085;-69
2021/11/08 11:45:53;;;;;;;14.00;5.43;;;11.40;99.90;;;;;;5085779;28;20027;-68
2021/11/08 11:48:22;;;;;;;18.20;5.75;;;11.30;99.90;;;;;;5093001;28;20458;-69
2021/11/08 11:50:48;;;;;;;22.27;5.38;;;11.40;99.90;;;;;;5093876;28;20518;-68
2021/11/08 11:53:15;;;;;;;15.80;5.38;;;11.50;99.90;;;;;;5075347;28;20437;-68
2021/11/08 11:55:41;;;;;;;17.83;5.65;;;11.40;99.90;;;;;;5094244;28;20078;-68
2021/11/08 11:58:07;;;;;;;16.52;4.55;;;11.10;99.90;;;;;;5075197;28;20521;-68
2021/11/08 12:00:36;;;;;;;13.13;5.07;;;11.00;99.90;;;;;;5093445;28;20129;-70
2021/11/08 12:03:03;;;;;;;18.05;4.85;;;11.00;99.90;;;;;;5075501;28;20457;-69
2021/11/08 12:05:30;;;;;;;12.10;4.55;;;10.90;99.90;;;;;;5092824;28;20084;-68
2021/11/08 12:08:00;;;;;;;15.95;5.68;;;10.90;99.90;;;;;;5093321;28;20024;-68
2021/11/08 12:10:26;;;;;;;16.85;5.20;;;10.90;99.90;;;;;;5109357;28;20070;-69
2021/11/08 12:12:53;;;;;;;16.60;5.68;;;10.90;99.90;;;;;;5101218;28;20093;-69
2021/11/08 12:15:32;;;;;;;25.23;6.85;;;10.90;99.90;;;;;;5092703;28;20026;-68
2021/11/08 12:18:08;;;;;;;16.15;5.63;;;11.10;99.90;;;;;;5084441;28;20039;-68
2021/11/08 12:20:44;;;;;;;19.27;5.13;;;10.90;99.90;;;;;;5094411;28;20111;-69
2021/11/08 12:23:17;;;;;;;16.23;4.85;;;10.90;99.90;;;;;;5097160;28;20453;-66
2021/11/08 12:25:45;;;;;;;24.98;4.93;;;11.00;99.90;;;;;;5074327;28;20016;-67
2021/11/08 12:28:20;;;;;;;15.27;4.95;;;11.00;99.90;;;;;;5107424;28;20030;-69
2021/11/08 12:30:48;;;;;;;11.15;4.07;;;11.00;99.90;;;;;;5112476;28;20062;-68
2021/11/08 12:33:30;;;;;;;19.58;4.47;;;10.80;99.90;;;;;;5112701;28;20016;-67
2021/11/08 12:36:00;;;;;;;18.73;4.97;;;10.80;99.90;;;;;;5111614;28;20020;-69
2021/11/08 12:38:33;;;;;;;17.98;4.28;;;10.80;99.90;;;;;;5092710;28;20476;-69
2021/11/08 12:41:12;;;;;;;17.23;4.07;;;10.80;99.90;;;;;;5092376;28;20024;-67
2021/11/08 12:43:50;;;;;;;12.75;3.85;;;10.80;99.90;;;;;;5077775;28;20035;-68
2021/11/08 12:46:18;;;;;;;16.50;4.25;;;10.70;99.90;;;;;;5105149;28;20040;-68
2021/11/08 12:48:46;;;;;;;23.95;4.50;;;10.80;99.90;;;;;;5072921;28;20064;-68
2021/11/08 12:51:13;;;;;;;13.40;4.40;;;10.70;99.90;;;;;;5074070;28;20024;-68
2021/11/08 12:54:10;;;;;;;13.60;4.45;;;10.70;99.90;;;;;;5073273;28;20438;-68
2021/11/08 12:56:47;;;;;;;18.15;4.25;;;10.80;99.90;;;;;;5092036;28;20028;-68
2021/11/08 12:59:23;;;;;;;14.57;3.58;;;10.90;99.90;;;;;;5092285;28;20081;-68
2021/11/08 13:02:08;;;;;;;13.20;3.72;;;10.90;99.90;;;;;;5073742;28;20119;-68
2021/11/08 13:04:44;;;;;;;12.00;4.30;;;11.00;99.90;;;;;;5073315;28;20457;-68
2021/11/08 13:07:13;;;;;;;14.55;5.28;;;11.10;99.90;;;;;;5092366;28;20039;-67
2021/11/08 13:09:44;;;;;;;16.45;4.28;;;11.30;99.90;;;;;;5091430;28;20534;-67
2021/11/08 13:12:20;;;;;;;19.80;4.65;;;11.40;99.90;;;;;;5073366;28;20024;-69
2021/11/08 13:14:49;;;;;;;12.35;4.55;;;11.30;99.90;;;;;;5092321;28;20438;-68
2021/11/08 13:17:21;;;;;;;15.60;4.20;;;11.20;99.90;;;;;;5091671;28;20091;-66
2021/11/08 13:19:54;;;;;;;14.57;4.15;;;11.00;99.90;;;;;;5091900;28;20422;-68
2021/11/08 13:22:26;;;;;;;17.17;4.28;;;11.10;99.90;;;;;;5072826;28;20472;-69
2021/11/08 13:25:01;;;;;;;19.15;4.60;;;11.20;99.90;;;;;;5091817;28;20024;-69
2021/11/08 13:27:28;;;;;;;15.90;4.70;;;11.10;99.90;;;;;;5072815;28;20442;-68
2021/11/08 13:29:57;;;;;;;12.85;4.03;;;11.10;99.90;;;;;;5073259;28;20464;-67
2021/11/08 13:32:23;;;;;;;16.75;3.97;;;11.10;99.90;;;;;;5072311;28;20074;-68
2021/11/08 13:34:50;;;;;;;12.43;3.63;;;10.90;99.90;;;;;;5073414;28;20458;-67
2021/11/08 13:37:16;;;;;;;13.38;3.90;;;10.90;99.90;;;;;;5073251;28;20043;-67
2021/11/08 13:39:43;;;;;;;10.63;4.15;;;10.90;99.90;;;;;;5090851;28;20036;-67
2021/11/08 13:42:20;;;;;;;7.95;2.88;;;10.90;99.90;;;;;;5073084;28;20028;-67
2021/11/08 13:44:47;;;;;;;12.63;3.22;;;10.80;99.90;;;;;;5090976;28;20028;-69
2021/11/08 13:47:13;;;;;;;14.05;3.55;;;10.70;99.90;;;;;;5091377;28;20043;-67
2021/11/08 13:49:39;;;;;;;10.45;3.95;;;10.90;99.90;;;;;;5090967;28;20036;-67
2021/11/08 13:52:06;;;;;;;11.57;5.07;;;11.00;99.90;;;;;;5073176;28;20035;-68
2021/11/08 13:54:36;;;;;;;18.92;4.80;;;10.90;99.90;;;;;;5090423;28;20028;-69
2021/11/08 13:57:05;;;;;;;12.80;3.00;;;10.90;99.90;;;;;;5073056;28;20036;-69
2021/11/08 13:59:38;;;;;;;7.13;2.83;;;10.90;99.90;;;;;;5090563;28;20092;-68
2021/11/08 14:02:10;;;;;;;11.35;2.78;;;11.20;99.90;;;;;;5091165;28;20135;-67
2021/11/08 14:04:35;;;;;;;;;;;11.10;99.90;;;;;;5072594;28;20438;-68
2021/11/08 14:07:03;;;;;;;11.52;3.33;;;11.10;99.90;;;;;;5090708;28;19915;-68
2021/11/08 14:09:29;;;;;;;13.18;2.58;;;11.10;99.90;;;;;;5072095;28;20434;-68
2021/11/08 14:11:57;;;;;;;18.77;3.30;;;11.30;99.90;;;;;;5091221;28;20028;-69
2021/11/08 14:14:26;;;;;;;13.45;2.88;;;11.20;99.90;;;;;;5091088;28;20019;-67
2021/11/08 14:16:54;;;;;;;26.25;4.15;;;11.10;99.90;;;;;;5091068;28;20153;-68
2021/11/08 14:19:22;;;;;;;10.27;2.83;;;11.10;99.90;;;;;;5091254;28;20450;-67
2021/11/08 14:21:51;;;;;;;12.90;3.65;;;11.00;99.90;;;;;;5090676;28;20035;-68
2021/11/08 14:24:22;;;;;;;14.05;3.47;;;11.00;99.90;;;;;;5091188;28;20020;-67
2021/11/08 14:26:51;;;;;;;15.10;3.05;;;10.90;99.90;;;;;;5072599;28;20036;-67
2021/11/08 14:29:26;;;;;;;13.45;3.08;;;10.80;99.90;;;;;;5073108;28;20034;-68
2021/11/08 14:32:02;;;;;;;15.95;3.42;;;10.80;99.90;;;;;;5091041;28;20138;-68
2021/11/08 14:34:33;;;;;;;12.18;3.40;;;10.80;99.90;;;;;;5093720;28;20036;-68
2021/11/08 14:37:00;;;;;;;;;;;10.70;99.90;;;;;;5077458;28;20032;-68